createdAt,value
2017-04-19T00:00:31.053Z,3.48
2017-04-19T00:01:31.035Z,3.4
2017-04-19T00:02:31.052Z,3.45
2017-04-19T00:03:31.074Z,3.31
2017-04-19T00:04:31.267Z,3.39
2017-04-19T00:05:30.800Z,3.39
2017-04-19T00:06:30.816Z,3.29
2017-04-19T00:07:31.138Z,3.36
2017-04-19T00:08:45.767Z,3.39
2017-04-19T00:09:31.467Z,3.36
2017-04-19T00:10:31.182Z,3.35
2017-04-19T00:11:31.201Z,3.31
2017-04-19T00:12:31.215Z,3.26
2017-04-19T00:13:31.231Z,3.31
2017-04-19T00:14:31.249Z,3.29
2017-04-19T00:15:30.961Z,3.2
2017-04-19T00:16:31.281Z,3.15
2017-04-19T00:17:45.917Z,3.2
2017-04-19T00:18:31.012Z,3.14
2017-04-19T00:19:31.030Z,3.2
2017-04-19T00:20:31.045Z,3.11
2017-04-19T00:21:31.369Z,3.05
2017-04-19T00:22:31.380Z,3.02
2017-04-19T00:23:31.508Z,3
2017-04-19T00:24:45.727Z,3.1
2017-04-19T00:25:31.441Z,3.05
2017-04-19T00:26:31.453Z,2.93
2017-04-19T00:27:31.462Z,2.9
2017-04-19T00:28:31.478Z,2.81
2017-04-19T00:29:31.494Z,2.82
2017-04-19T00:30:31.515Z,2.81
2017-04-19T00:32:31.541Z,2.79
2017-04-19T00:33:31.559Z,2.79
2017-04-19T00:34:31.574Z,2.78
2017-04-19T00:35:31.591Z,2.69
2017-04-19T00:36:31.613Z,2.72
2017-04-19T00:37:31.624Z,2.6
2017-04-19T00:38:31.641Z,2.59
2017-04-19T00:39:46.274Z,2.52
2017-04-19T00:40:31.675Z,2.54
2017-04-19T00:41:31.386Z,2.54
2017-04-19T00:42:31.403Z,2.45
2017-04-19T00:43:31.724Z,2.49
2017-04-19T00:44:32.038Z,2.3
2017-04-19T00:45:31.754Z,2.35
2017-04-19T00:46:31.770Z,2.41
2017-04-19T00:47:31.786Z,2.3
2017-04-19T00:48:31.804Z,2.34
2017-04-19T00:49:31.818Z,2.28
2017-04-19T00:50:31.908Z,2.28
2017-04-19T00:51:46.465Z,2.27
2017-04-19T00:52:31.863Z,2.2
2017-04-19T00:53:31.883Z,2.27
2017-04-19T00:54:31.898Z,2.23
2017-04-19T00:55:31.913Z,2.12
2017-04-19T00:56:31.928Z,2.25
2017-04-19T00:57:31.948Z,2.07
2017-04-19T00:58:31.659Z,2.06
2017-04-19T00:59:31.977Z,2.1
2017-04-19T01:00:31.690Z,2.09
2017-04-19T01:01:32.017Z,2.1
2017-04-19T01:02:32.025Z,2.12
2017-04-19T01:03:32.041Z,2.03
2017-04-19T01:04:32.061Z,2
2017-04-19T01:06:32.089Z,2.06
2017-04-19T01:07:46.719Z,2
2017-04-19T01:08:46.734Z,2.05
2017-04-19T01:09:32.138Z,2.02
2017-04-19T01:11:46.780Z,2
2017-04-19T01:12:32.193Z,1.98
2017-04-19T01:13:32.203Z,1.98
2017-04-19T01:14:32.214Z,1.9
2017-04-19T01:15:31.925Z,1.91
2017-04-19T01:16:32.245Z,1.9
2017-04-19T01:17:32.261Z,1.79
2017-04-19T01:18:32.278Z,1.83
2017-04-19T01:19:32.294Z,1.76
2017-04-19T01:21:32.328Z,1.76
2017-04-19T01:22:32.340Z,1.68
2017-04-19T01:23:46.971Z,1.58
2017-04-19T01:24:32.371Z,1.6
2017-04-19T01:25:47.000Z,1.59
2017-04-19T01:26:32.404Z,1.54
2017-04-19T01:27:47.035Z,1.68
2017-04-19T01:28:32.433Z,1.54
2017-04-19T01:29:32.594Z,1.58
2017-04-19T01:30:32.465Z,1.6
2017-04-19T01:31:32.484Z,1.48
2017-04-19T01:32:32.499Z,1.42
2017-04-19T01:38:32.629Z,1.47
2017-04-19T01:39:32.603Z,1.34
2017-04-19T01:40:47.234Z,1.44
2017-04-19T01:41:32.637Z,1.3
2017-04-19T01:42:32.654Z,1.34
2017-04-19T01:43:47.281Z,1.37
2017-04-19T01:44:32.685Z,1.2
2017-04-19T01:45:32.698Z,1.16
2017-04-19T01:46:32.713Z,1.29
2017-04-19T01:47:32.730Z,1.23
2017-04-19T01:48:32.746Z,1.15
2017-04-19T01:50:32.776Z,1.14
2017-04-19T01:51:32.790Z,1.08
2017-04-19T01:52:32.808Z,1.14
2017-04-19T01:53:47.439Z,1.09
2017-04-19T01:54:32.841Z,1.16
2017-04-19T01:56:47.483Z,1.06
2017-04-19T01:57:32.884Z,1.11
2017-04-19T01:58:32.597Z,1.09
2017-04-19T01:59:47.529Z,1.02
2017-04-19T02:00:32.928Z,1.05
2017-04-19T02:01:32.950Z,1.12
2017-04-19T02:02:32.961Z,1.04
2017-04-19T02:04:32.990Z,1.04
2017-04-19T02:05:33.003Z,1.05
2017-04-19T02:07:33.044Z,0.98
2017-04-19T02:08:33.053Z,0.98
2017-04-19T02:09:33.066Z,1
2017-04-19T02:10:33.082Z,0.94
2017-04-19T02:11:47.714Z,1
2017-04-19T02:12:33.113Z,1.05
2017-04-19T02:13:33.133Z,0.93
2017-04-19T02:14:47.760Z,0.87
2017-04-19T02:15:33.163Z,0.87
2017-04-19T02:16:33.181Z,0.86
2017-04-19T02:17:33.194Z,0.7
2017-04-19T02:19:33.225Z,0.87
2017-04-19T02:20:33.241Z,0.7
2017-04-19T02:24:33.297Z,0.73
2017-04-19T02:25:47.928Z,0.69
2017-04-19T02:26:47.942Z,0.72
2017-04-19T02:27:33.340Z,0.76
2017-04-19T02:28:33.358Z,0.76
2017-04-19T02:29:33.374Z,0.72
2017-04-19T02:30:33.388Z,0.9
2017-04-19T02:31:33.403Z,0.88
2017-04-19T02:32:33.418Z,0.83
2017-04-19T02:33:33.435Z,0.75
2017-04-19T02:34:33.146Z,0.73
2017-04-19T02:35:33.462Z,0.76
2017-04-19T02:37:33.492Z,0.68
2017-04-19T02:38:33.507Z,0.62
2017-04-19T02:39:33.522Z,0.58
2017-04-19T02:40:48.502Z,0.79
2017-04-19T02:41:33.555Z,0.75
2017-04-19T02:42:48.185Z,0.69
2017-04-19T02:43:33.584Z,0.72
2017-04-19T02:44:33.602Z,0.72
2017-04-19T02:45:33.611Z,0.62
2017-04-19T02:46:48.242Z,0.65
2017-04-19T02:47:33.643Z,0.72
2017-04-19T02:49:33.677Z,0.61
2017-04-19T02:50:33.686Z,0.49
2017-04-19T02:51:33.707Z,0.53
2017-04-19T02:52:33.718Z,0.5
2017-04-19T02:54:33.750Z,0.5
2017-04-19T02:55:33.868Z,0.41
2017-04-19T02:56:33.782Z,0.51
2017-04-19T02:57:33.792Z,0.53
2017-04-19T02:58:48.423Z,0.39
2017-04-19T02:59:33.822Z,0.38
2017-04-19T03:00:48.450Z,0.46
2017-04-19T03:01:33.852Z,0.41
2017-04-19T03:02:48.482Z,0.36
2017-04-19T03:03:33.884Z,0.38
2017-04-19T03:04:33.898Z,0.42
2017-04-19T03:05:33.608Z,0.42
2017-04-19T03:06:33.623Z,0.38
2017-04-19T03:07:33.943Z,0.33
2017-04-19T03:08:33.972Z,0.47
2017-04-19T03:09:33.970Z,0.39
2017-04-19T03:10:48.604Z,0.31
2017-04-19T03:11:33.999Z,0.42
2017-04-19T03:12:34.022Z,0.32
2017-04-19T03:13:34.038Z,0.32
2017-04-19T03:14:48.659Z,0.38
2017-04-19T03:15:48.673Z,0.33
2017-04-19T03:16:34.073Z,0.31
2017-04-19T03:17:34.090Z,0.26
2017-04-19T03:18:48.718Z,0.28
2017-04-19T03:19:33.812Z,0.18
2017-04-19T03:20:34.130Z,0.14
2017-04-19T03:21:34.147Z,0.17
2017-04-19T03:22:34.162Z,0.14
2017-04-19T03:23:34.177Z,0.2
2017-04-19T03:24:34.193Z,0.21
2017-04-19T03:25:34.207Z,0.18
2017-04-19T03:26:34.226Z,0.24
2017-04-19T03:27:34.238Z,0.14
2017-04-19T03:28:34.251Z,0.21
2017-04-19T03:29:34.571Z,0.17
2017-04-19T03:30:48.896Z,0.18
2017-04-19T03:31:34.302Z,0.04
2017-04-19T03:32:34.310Z,0.11
2017-04-19T03:33:34.325Z,0.11
2017-04-19T03:34:48.953Z,0.11
2017-04-19T03:35:34.352Z,0.11
2017-04-19T03:36:34.066Z,0.08
2017-04-19T03:37:34.381Z,0
2017-04-19T03:38:34.409Z,0.02
2017-04-19T03:39:34.109Z,-0.01
2017-04-19T03:40:34.425Z,-0.01
2017-04-19T03:41:34.438Z,0.1
2017-04-19T03:42:34.454Z,0.14
2017-04-19T03:43:49.089Z,0.04
2017-04-19T03:44:34.485Z,-0.01
2017-04-19T03:46:49.129Z,-0.01
2017-04-19T03:47:34.528Z,-0.04
2017-04-19T03:48:34.544Z,0.02
2017-04-19T03:49:49.172Z,-0.04
2017-04-19T03:50:34.573Z,-0.01
2017-04-19T03:51:34.586Z,-0.07
2017-04-19T03:52:34.601Z,0
2017-04-19T03:53:34.618Z,-0.14
2017-04-19T03:54:34.635Z,-0.1
2017-04-19T03:55:34.644Z,-0.03
2017-04-19T03:57:34.676Z,0.08
2017-04-19T03:58:34.693Z,0
2017-04-19T03:59:34.703Z,0.03
2017-04-19T04:00:34.719Z,-0.03
2017-04-19T04:01:34.732Z,0
2017-04-19T04:02:49.661Z,-0.18
2017-04-19T04:03:34.759Z,0
2017-04-19T04:04:34.774Z,-0.1
2017-04-19T04:05:34.794Z,0.03
2017-04-19T04:06:34.809Z,0.1
2017-04-19T04:07:34.819Z,0.04
2017-04-19T04:08:34.831Z,-0.03
2017-04-19T04:09:35.046Z,0
2017-04-19T04:10:34.862Z,0.02
2017-04-19T04:11:34.879Z,-0.03
2017-04-19T04:12:34.894Z,-0.11
2017-04-19T04:13:34.903Z,0.04
2017-04-19T04:14:34.721Z,-0.03
2017-04-19T04:15:34.630Z,0
2017-04-19T04:16:34.950Z,0
2017-04-19T04:17:49.576Z,0.02
2017-04-19T04:18:34.671Z,-0.04
2017-04-19T04:19:34.991Z,0.03
2017-04-19T04:20:35.305Z,0
2017-04-19T04:21:49.634Z,-0.01
2017-04-19T04:22:35.035Z,0.07
2017-04-19T04:24:35.061Z,0.08
2017-04-19T04:25:35.078Z,0.14
2017-04-19T04:26:35.093Z,0.11
2017-04-19T04:27:35.106Z,0.2
2017-04-19T04:28:35.119Z,0.11
2017-04-19T04:30:35.161Z,0.23
2017-04-19T04:31:35.165Z,0.23
2017-04-19T04:32:35.181Z,0.13
2017-04-19T04:33:35.194Z,0.18
2017-04-19T04:34:35.212Z,0.2
2017-04-19T04:35:35.224Z,0.14
2017-04-19T04:36:35.239Z,0.21
2017-04-19T04:37:49.867Z,0.29
2017-04-19T04:38:35.272Z,0.32
2017-04-19T04:39:35.285Z,0.33
2017-04-19T04:40:35.295Z,0.31
2017-04-19T04:41:35.311Z,0.31
2017-04-19T04:42:35.342Z,0.29
2017-04-19T04:43:35.341Z,0.31
2017-04-19T04:45:35.371Z,0.61
2017-04-19T04:46:35.385Z,0.91
2017-04-19T04:47:35.399Z,1.34
2017-04-19T04:48:35.414Z,1.73
2017-04-19T04:49:35.435Z,2.31
2017-04-19T04:50:50.059Z,2.79
2017-04-19T04:51:35.460Z,2.9
2017-04-19T04:52:35.479Z,2.78
2017-04-19T04:53:50.108Z,2.99
2017-04-19T04:54:35.512Z,3.26
2017-04-19T04:55:35.565Z,3.66
2017-04-19T04:56:35.549Z,4.02
2017-04-19T04:57:35.567Z,4.51
2017-04-19T04:58:35.586Z,4.5
2017-04-19T04:59:35.606Z,3.78
2017-04-19T05:00:35.625Z,4.14
2017-04-19T05:01:35.649Z,4.37
2017-04-19T05:02:35.663Z,4.44
2017-04-19T05:03:35.687Z,4.77
2017-04-19T05:05:35.727Z,4.73
2017-04-19T05:06:50.367Z,4.8
2017-04-19T05:07:35.777Z,4.8
2017-04-19T05:08:35.796Z,4.88
2017-04-19T05:09:50.433Z,5.06
2017-04-19T05:10:35.840Z,5.12
2017-04-19T05:11:35.558Z,5.4
2017-04-19T05:12:35.887Z,4.86
2017-04-19T05:13:35.907Z,5.45
2017-04-19T05:14:35.627Z,5.54
2017-04-19T05:15:35.954Z,5.24
2017-04-19T05:16:35.672Z,5.02
2017-04-19T05:17:35.697Z,5.36
2017-04-19T05:18:36.041Z,5.89
2017-04-19T05:19:36.184Z,6.01
2017-04-19T05:20:35.772Z,5.79
2017-04-19T05:21:35.793Z,6.14
2017-04-19T05:22:36.133Z,5.99
2017-04-19T05:23:36.148Z,5.51
2017-04-19T05:24:50.795Z,5.27
2017-04-19T05:25:36.194Z,4.88
2017-04-19T05:26:35.913Z,5.35
2017-04-19T05:27:36.241Z,5.3
2017-04-19T05:28:36.477Z,4.78
2017-04-19T05:29:36.322Z,5.06
2017-04-19T05:30:36.317Z,4.94
2017-04-19T05:31:36.341Z,5.46
2017-04-19T05:33:36.388Z,6.64
2017-04-19T05:34:36.416Z,6.55
2017-04-19T05:36:51.083Z,6.92
2017-04-19T05:37:36.489Z,6.73
2017-04-19T05:38:36.518Z,7.16
2017-04-19T05:39:36.541Z,7.75
2017-04-19T05:40:36.568Z,7.57
2017-04-19T05:41:36.591Z,7.25
2017-04-19T05:42:36.626Z,7.63
2017-04-19T05:43:36.340Z,7.8
2017-04-19T05:44:36.669Z,7.46
2017-04-19T05:45:36.702Z,7.48
2017-04-19T05:46:36.834Z,7.69
2017-04-19T05:47:36.750Z,7.89
2017-04-19T05:48:36.787Z,7.27
2017-04-19T05:49:36.803Z,6.7
2017-04-19T05:51:36.857Z,7.07
2017-04-19T05:53:36.611Z,7.24
2017-04-19T05:54:36.938Z,7.31
2017-04-19T05:55:37.000Z,7.64
2017-04-19T05:56:51.613Z,6.59
2017-04-19T05:57:37.320Z,6.87
2017-04-19T05:58:37.048Z,7.06
2017-04-19T05:59:37.077Z,6.97
2017-04-19T06:00:37.105Z,7.68
2017-04-19T06:01:37.130Z,7.45
2017-04-19T06:02:37.157Z,7.42
2017-04-19T06:03:37.185Z,7.5
2017-04-19T06:04:37.249Z,8.1
2017-04-19T06:05:37.241Z,8.33
2017-04-19T06:08:37.326Z,8.94
2017-04-19T06:09:37.052Z,9.21
2017-04-19T06:10:37.385Z,9.38
2017-04-19T06:11:37.413Z,9.26
2017-04-19T06:12:52.062Z,10.02
2017-04-19T06:13:37.473Z,9.84
2017-04-19T06:14:37.497Z,9.04
2017-04-19T06:15:37.528Z,8.91
2017-04-19T06:16:37.559Z,8.86
2017-04-19T06:17:37.588Z,8.38
2017-04-19T06:18:37.614Z,7.67
2017-04-19T06:19:37.645Z,7.95
2017-04-19T06:20:37.674Z,8.7
2017-04-19T06:21:37.702Z,9.38
2017-04-19T06:22:37.735Z,9.32
2017-04-19T06:23:37.763Z,8.87
2017-04-19T06:24:37.794Z,9.17
2017-04-19T06:25:37.824Z,9.46
2017-04-19T06:26:37.851Z,10.34
2017-04-19T06:27:37.576Z,10.51
2017-04-19T06:28:52.531Z,10.74
2017-04-19T06:29:37.940Z,10.15
2017-04-19T06:30:38.274Z,9.43
2017-04-19T06:31:38.223Z,9.11
2017-04-19T06:32:38.030Z,8.66
2017-04-19T06:33:38.061Z,8.71
2017-04-19T06:34:38.089Z,9.61
2017-04-19T06:36:38.149Z,9.5
2017-04-19T06:37:38.182Z,9.05
2017-04-19T06:38:38.209Z,8.86
2017-04-19T06:39:38.240Z,8.91
2017-04-19T06:40:38.281Z,8.99
2017-04-19T06:41:52.919Z,9.56
2017-04-19T06:42:38.331Z,9.57
2017-04-19T06:43:38.358Z,9.47
2017-04-19T06:44:53.009Z,9.61
2017-04-19T06:45:38.422Z,9.65
2017-04-19T06:46:38.149Z,10.26
2017-04-19T06:47:38.481Z,9.81
2017-04-19T06:48:38.517Z,9.58
2017-04-19T06:49:38.240Z,9.38
2017-04-19T06:51:38.300Z,9.61
2017-04-19T06:52:38.634Z,9.57
2017-04-19T06:53:38.664Z,9.14
2017-04-19T06:54:53.317Z,9.29
2017-04-19T06:55:38.730Z,9.56
2017-04-19T06:56:38.758Z,9.79
2017-04-19T06:57:38.789Z,10.23
2017-04-19T06:58:38.820Z,10.38
2017-04-19T06:59:53.469Z,9.96
2017-04-19T07:00:38.882Z,9.72
2017-04-19T07:01:38.912Z,9.4
2017-04-19T07:02:38.939Z,8.73
2017-04-19T07:03:38.972Z,8.87
2017-04-19T07:04:39.104Z,8.96
2017-04-19T07:05:39.035Z,9.5
2017-04-19T07:07:39.113Z,8.53
2017-04-19T07:08:39.126Z,8.45
2017-04-19T07:09:39.155Z,8.25
2017-04-19T07:10:39.186Z,8.33
2017-04-19T07:11:53.833Z,8.8
2017-04-19T07:12:53.862Z,9.08
2017-04-19T07:13:39.274Z,9.78
2017-04-19T07:14:39.332Z,9.61
2017-04-19T07:15:39.336Z,8.63
2017-04-19T07:16:39.059Z,8.87
2017-04-19T07:17:39.389Z,9.23
2017-04-19T07:19:39.444Z,8.59
2017-04-19T07:20:39.474Z,8.08
2017-04-19T07:21:39.502Z,8.15
2017-04-19T07:22:39.536Z,8.05
2017-04-19T07:23:39.810Z,8.04
2017-04-19T07:25:39.620Z,7.5
2017-04-19T07:26:39.646Z,7.55
2017-04-19T07:27:39.365Z,7.52
2017-04-19T07:28:39.700Z,7.45
2017-04-19T07:29:39.731Z,6.73
2017-04-19T07:30:39.756Z,6.44
2017-04-19T07:31:54.393Z,6.18
2017-04-19T07:32:39.802Z,6.17
2017-04-19T07:33:39.829Z,6.17
2017-04-19T07:34:39.853Z,6.28
2017-04-19T07:36:39.908Z,7.57
2017-04-19T07:37:39.930Z,8.19
2017-04-19T07:38:39.962Z,8.37
2017-04-19T07:39:39.984Z,7.93
2017-04-19T07:41:54.652Z,7.42
2017-04-19T07:42:40.058Z,7.57
2017-04-19T07:43:40.083Z,7.5
2017-04-19T07:44:54.725Z,6.91
2017-04-19T07:45:39.828Z,6.73
2017-04-19T07:46:40.155Z,6.49
2017-04-19T07:47:54.800Z,5.96
2017-04-19T07:48:40.207Z,5.85
2017-04-19T07:49:40.232Z,5.94
2017-04-19T07:50:40.258Z,6.01
2017-04-19T07:51:40.280Z,6.11
2017-04-19T07:52:40.311Z,6.34
2017-04-19T07:53:40.326Z,6.28
2017-04-19T07:55:40.375Z,6.21
2017-04-19T07:56:40.396Z,6.46
2017-04-19T07:57:40.441Z,6.77
2017-04-19T07:58:40.444Z,7.13
2017-04-19T07:59:40.507Z,7.85
2017-04-19T08:00:40.494Z,8.7
2017-04-19T08:01:40.519Z,9.65
2017-04-19T08:02:40.236Z,10.29
2017-04-19T08:03:55.180Z,10.96
2017-04-19T08:04:40.284Z,10.17
2017-04-19T08:05:40.617Z,9.31
2017-04-19T08:06:40.031Z,9.33
2017-04-19T08:07:40.053Z,9.15
2017-04-19T08:08:40.381Z,9.46
2017-04-19T08:09:40.713Z,10.15
2017-04-19T08:10:40.437Z,10.59
2017-04-19T08:11:40.765Z,11.06
2017-04-19T08:12:40.786Z,11.07
2017-04-19T08:13:40.619Z,10.88
2017-04-19T08:14:40.838Z,10.17
2017-04-19T08:15:55.483Z,9.23
2017-04-19T08:16:55.507Z,9.35
2017-04-19T08:17:40.611Z,9.66
2017-04-19T08:18:40.636Z,9.93
2017-04-19T08:19:55.582Z,9.66
2017-04-19T08:20:40.992Z,9.69
2017-04-19T08:21:41.016Z,9.64
2017-04-19T08:22:41.040Z,9.36
2017-04-19T08:23:40.462Z,9.72
2017-04-19T08:24:41.094Z,10.15
2017-04-19T08:25:41.130Z,10.15
2017-04-19T08:26:40.841Z,9.75
2017-04-19T08:27:41.169Z,9.26
2017-04-19T08:29:41.169Z,8.01
2017-04-19T08:30:40.943Z,7.72
2017-04-19T08:31:41.271Z,7.55
2017-04-19T08:32:55.914Z,7.45
2017-04-19T08:33:40.715Z,7.39
2017-04-19T08:34:55.965Z,7.1
2017-04-19T08:35:41.375Z,7.27
2017-04-19T08:36:41.396Z,7.53
2017-04-19T08:37:41.430Z,7.55
2017-04-19T08:38:41.444Z,7.46
2017-04-19T08:39:41.472Z,7.63
2017-04-19T08:40:41.492Z,7.77
2017-04-19T08:41:41.523Z,7.58
2017-04-19T08:42:41.297Z,7.67
2017-04-19T08:43:41.262Z,8.01
2017-04-19T08:44:41.286Z,8.11
2017-04-19T08:45:41.612Z,8.43
2017-04-19T08:46:41.636Z,8.56
2017-04-19T08:47:56.278Z,8.79
2017-04-19T08:48:41.384Z,9.23
2017-04-19T08:49:41.713Z,9.72
2017-04-19T08:50:41.732Z,10.29
2017-04-19T08:51:41.755Z,10.85
2017-04-19T08:52:41.778Z,11.4
2017-04-19T08:53:41.852Z,11.17
2017-04-19T08:54:41.826Z,10.97
2017-04-19T08:55:41.852Z,10.96
2017-04-19T08:56:41.880Z,10.71
2017-04-19T08:57:41.901Z,9.97
2017-04-19T08:58:41.926Z,9.78
2017-04-19T08:59:41.949Z,9.58
2017-04-19T09:00:56.289Z,9.48
2017-04-19T09:01:41.999Z,9.05
2017-04-19T09:02:42.025Z,8.7
2017-04-19T09:03:56.665Z,8.38
2017-04-19T09:04:41.470Z,8.36
2017-04-19T09:05:41.799Z,8.37
2017-04-19T09:06:56.435Z,8.11
2017-04-19T09:07:42.155Z,7.58
2017-04-19T09:08:42.169Z,7.57
2017-04-19T09:09:42.191Z,7.68
2017-04-19T09:10:41.929Z,8.05
2017-04-19T09:11:42.241Z,8.43
2017-04-19T09:13:42.288Z,9.42
2017-04-19T09:14:42.310Z,9.61
2017-04-19T09:16:42.361Z,9.47
2017-04-19T09:17:56.696Z,9.6
2017-04-19T09:18:42.405Z,9.23
2017-04-19T09:19:42.432Z,8.98
2017-04-19T09:20:42.451Z,8.44
2017-04-19T09:21:42.482Z,8.36
2017-04-19T09:22:57.121Z,8.16
2017-04-19T09:23:42.527Z,8.34
2017-04-19T09:24:42.554Z,8.33
2017-04-19T09:25:42.593Z,7.82
2017-04-19T09:26:42.300Z,7.64
2017-04-19T09:27:42.618Z,8.11
2017-04-19T09:28:42.642Z,8.58
2017-04-19T09:29:42.667Z,9.24
2017-04-19T09:30:42.691Z,10.17
2017-04-19T09:32:42.737Z,10.89
2017-04-19T09:33:57.381Z,10.91
2017-04-19T09:34:42.828Z,11
2017-04-19T09:35:42.506Z,10.89
2017-04-19T09:36:42.832Z,10.3
2017-04-19T09:37:42.857Z,9.29
2017-04-19T09:38:57.498Z,9.78
2017-04-19T09:39:42.904Z,9.61
2017-04-19T09:40:42.930Z,9.21
2017-04-19T09:41:42.957Z,8.58
2017-04-19T09:42:42.977Z,8.07
2017-04-19T09:43:43.001Z,7.82
2017-04-19T09:44:43.026Z,7.71
2017-04-19T09:45:43.049Z,7.25
2017-04-19T09:46:43.072Z,7.07
2017-04-19T09:48:42.826Z,6.85
2017-04-19T09:49:43.141Z,6.73
2017-04-19T09:50:42.859Z,6.71
2017-04-19T09:51:57.803Z,6.95
2017-04-19T09:52:43.209Z,7.28
2017-04-19T09:53:42.928Z,7.61
2017-04-19T09:54:58.170Z,7.92
2017-04-19T09:55:43.279Z,8.16
2017-04-19T09:56:43.001Z,8.01
2017-04-19T09:57:43.320Z,8.1
2017-04-19T09:58:43.342Z,8.41
2017-04-19T09:59:43.366Z,8.56
2017-04-19T10:00:43.084Z,8.83
2017-04-19T10:01:43.412Z,9.08
2017-04-19T10:03:43.453Z,9.31
2017-04-19T10:05:58.118Z,9.86
2017-04-19T10:06:58.139Z,9.91
2017-04-19T10:07:58.162Z,9.97
2017-04-19T10:08:43.570Z,9.68
2017-04-19T10:09:58.330Z,8.74
2017-04-19T10:10:43.613Z,8.76
2017-04-19T10:11:43.636Z,8.22
2017-04-19T10:12:43.663Z,7.72
2017-04-19T10:13:43.679Z,7.68
2017-04-19T10:14:43.710Z,8.15
2017-04-19T10:15:43.728Z,8.61
2017-04-19T10:16:43.749Z,9.38
2017-04-19T10:18:43.843Z,9.54
2017-04-19T10:19:43.514Z,9.74
2017-04-19T10:20:43.842Z,9.64
2017-04-19T10:21:58.480Z,9.99
2017-04-19T10:22:43.279Z,9.76
2017-04-19T10:23:43.907Z,9.36
2017-04-19T10:24:43.931Z,8.91
2017-04-19T10:25:43.652Z,8.34
2017-04-19T10:26:43.978Z,8.2
2017-04-19T10:27:43.998Z,7.68
2017-04-19T10:28:44.020Z,7.07
2017-04-19T10:29:44.046Z,6.62
2017-04-19T10:30:43.762Z,6.38
2017-04-19T10:32:44.110Z,6.19
2017-04-19T10:33:44.132Z,5.97
2017-04-19T10:34:44.153Z,6.19
2017-04-19T10:35:44.177Z,6.11
2017-04-19T10:36:44.198Z,5.89
2017-04-19T10:37:44.223Z,5.9
2017-04-19T10:38:44.247Z,5.72
2017-04-19T10:39:43.964Z,5.65
2017-04-19T10:40:58.901Z,5.83
2017-04-19T10:41:58.923Z,6.15
2017-04-19T10:42:44.327Z,6.37
2017-04-19T10:43:44.352Z,6.36
2017-04-19T10:44:44.375Z,6.79
2017-04-19T10:45:44.465Z,6.62
2017-04-19T10:47:44.437Z,6.62
2017-04-19T10:48:43.850Z,6.73
2017-04-19T10:49:44.480Z,7.25
2017-04-19T10:50:44.504Z,7.48
2017-04-19T10:51:59.139Z,7.6
2017-04-19T10:52:44.542Z,7.61
2017-04-19T10:54:44.729Z,7.23
2017-04-19T10:55:59.226Z,7.34
2017-04-19T10:56:44.027Z,7.61
2017-04-19T10:57:59.273Z,7.68
2017-04-19T10:58:44.674Z,7.72
2017-04-19T10:59:44.393Z,7.67
2017-04-19T11:00:44.415Z,7.61
2017-04-19T11:01:44.739Z,7.63
2017-04-19T11:02:44.760Z,7.74
2017-04-19T11:03:44.783Z,7.85
2017-04-19T11:04:44.942Z,7.72
2017-04-19T11:05:44.829Z,8.01
2017-04-19T11:06:44.854Z,8.5
2017-04-19T11:07:44.566Z,9.1
2017-04-19T11:08:44.585Z,9.29
2017-04-19T11:09:44.911Z,9.24
2017-04-19T11:10:44.931Z,9.05
2017-04-19T11:11:44.958Z,9.13
2017-04-19T11:12:44.975Z,8.45
2017-04-19T11:13:59.329Z,8.04
2017-04-19T11:14:45.022Z,7.75
2017-04-19T11:15:45.045Z,7.3
2017-04-19T11:16:45.066Z,6.56
2017-04-19T11:17:44.782Z,6.7
2017-04-19T11:18:44.809Z,6.74
2017-04-19T11:19:45.126Z,6.92
2017-04-19T11:20:45.148Z,6.85
2017-04-19T11:21:44.867Z,6.74
2017-04-19T11:22:44.887Z,6.56
2017-04-19T11:24:44.931Z,7.05
2017-04-19T11:25:59.570Z,7.1
2017-04-19T11:26:45.274Z,7.13
2017-04-19T11:27:44.992Z,7.1
2017-04-19T11:28:44.711Z,7.31
2017-04-19T11:29:59.954Z,7.2
2017-04-19T11:30:44.751Z,6.94
2017-04-19T11:31:45.077Z,6.56
2017-04-19T11:32:44.794Z,6.85
2017-04-19T11:33:44.815Z,6.99
2017-04-19T11:34:44.837Z,7.21
2017-04-19T11:35:45.464Z,7.48
2017-04-19T11:36:44.880Z,7.34
2017-04-19T11:37:45.201Z,7.63
2017-04-19T11:38:44.922Z,7.95
2017-04-19T11:39:45.553Z,8.4
2017-04-19T11:40:45.266Z,8.94
2017-04-19T11:41:59.905Z,9.42
2017-04-19T11:42:45.311Z,9.57
2017-04-19T11:43:45.334Z,9.48
2017-04-19T11:45:00.272Z,9.14
2017-04-19T11:45:45.676Z,9.2
2017-04-19T11:46:45.097Z,8.94
2017-04-19T11:47:45.415Z,7.6
2017-04-19T11:48:45.435Z,6.64
2017-04-19T11:49:45.763Z,5.99
2017-04-19T11:50:45.783Z,5.83
2017-04-19T11:51:45.802Z,5.74
2017-04-19T11:52:45.825Z,5.74
2017-04-19T11:53:45.844Z,5.93
2017-04-19T11:54:45.866Z,6.09
2017-04-19T11:56:45.907Z,6.59
2017-04-19T11:58:00.546Z,6.59
2017-04-19T11:58:45.953Z,6.81
2017-04-19T11:59:45.974Z,7.2
2017-04-19T12:00:46.203Z,7.25
2017-04-19T12:01:46.013Z,7.27
2017-04-19T12:02:46.030Z,7.23
2017-04-19T12:03:46.052Z,7.32
2017-04-19T12:04:46.072Z,7.48
2017-04-19T12:05:46.095Z,7.28
2017-04-19T12:06:45.812Z,7.12
2017-04-19T12:07:46.136Z,7.39
2017-04-19T12:08:45.852Z,7.52
2017-04-19T12:09:45.764Z,7.63
2017-04-19T12:11:45.915Z,8.19
2017-04-19T12:13:00.857Z,8.22
2017-04-19T12:13:45.961Z,8.38
2017-04-19T12:15:00.897Z,8.53
2017-04-19T12:15:46.302Z,8.71
2017-04-19T12:17:00.635Z,8.68
2017-04-19T12:17:46.043Z,8.71
2017-04-19T12:18:45.757Z,8.36
2017-04-19T12:19:46.081Z,8.4
2017-04-19T12:20:46.103Z,8.45
2017-04-19T12:21:46.427Z,8.3
2017-04-19T12:22:46.448Z,8.01
2017-04-19T12:23:46.166Z,7.95
2017-04-19T12:24:46.187Z,7.93
2017-04-19T12:29:00.888Z,8.04
2017-04-19T12:29:46.596Z,7.58
2017-04-19T12:31:01.234Z,7.37
2017-04-19T12:31:46.638Z,7.35
2017-04-19T12:33:01.277Z,7.24
2017-04-19T12:33:46.682Z,7.12
2017-04-19T12:34:46.701Z,6.97
2017-04-19T12:35:46.721Z,6.81
2017-04-19T12:36:46.743Z,6.8
2017-04-19T12:37:46.459Z,6.98
2017-04-19T12:38:47.014Z,6.92
2017-04-19T12:39:46.500Z,6.97
2017-04-19T12:40:46.825Z,7.02
2017-04-19T12:41:46.541Z,7.21
2017-04-19T12:43:46.594Z,7.79
2017-04-19T12:44:46.302Z,7.83
2017-04-19T12:45:46.628Z,7.83
2017-04-19T12:47:01.566Z,7.79
2017-04-19T12:47:46.973Z,7.93
2017-04-19T12:49:01.608Z,7.79
2017-04-19T12:49:47.012Z,7.58
2017-04-19T12:50:47.035Z,7.82
2017-04-19T12:51:47.051Z,7.79
2017-04-19T12:52:46.771Z,7.85
2017-04-19T12:53:47.093Z,7.8
2017-04-19T12:54:47.117Z,7.87
2017-04-19T12:55:46.832Z,7.83
2017-04-19T12:56:47.156Z,7.75
2017-04-19T12:57:46.872Z,7.77
2017-04-19T12:58:46.899Z,7.92
2017-04-19T12:59:46.913Z,7.77
2017-04-19T13:00:46.937Z,7.86
2017-04-19T13:01:47.263Z,7.82
2017-04-19T13:02:46.980Z,7.53
2017-04-19T13:03:46.997Z,7.53
2017-04-19T13:05:01.637Z,7.55
2017-04-19T13:05:47.495Z,7.53
2017-04-19T13:06:47.364Z,7.42
2017-04-19T13:07:47.382Z,7.35
2017-04-19T13:08:47.101Z,7.46
2017-04-19T13:09:47.444Z,7.42
2017-04-19T13:10:47.445Z,7.24
2017-04-19T13:11:47.466Z,7.3
2017-04-19T13:12:47.183Z,7.37
2017-04-19T13:13:47.204Z,7.34
2017-04-19T13:14:47.223Z,7.32
2017-04-19T13:15:47.246Z,7.4
2017-04-19T13:16:47.270Z,7.53
2017-04-19T13:18:02.207Z,7.69
2017-04-19T13:18:47.610Z,7.67
2017-04-19T13:20:02.249Z,7.74
2017-04-19T13:20:47.651Z,7.75
2017-04-19T13:21:47.671Z,7.69
2017-04-19T13:22:47.694Z,7.82
2017-04-19T13:23:47.409Z,7.86
2017-04-19T13:24:47.732Z,8.02
2017-04-19T13:25:47.753Z,8.08
2017-04-19T13:26:47.470Z,8.07
2017-04-19T13:27:47.494Z,8.4
2017-04-19T13:29:47.835Z,8.68
2017-04-19T13:30:47.857Z,8.53
2017-04-19T13:31:47.572Z,8.4
2017-04-19T13:32:47.896Z,8.18
2017-04-19T13:33:47.917Z,8.1
2017-04-19T13:34:47.939Z,8.18
2017-04-19T13:35:47.352Z,8.22
2017-04-19T13:36:47.981Z,8.43
2017-04-19T13:37:48.000Z,8.47
2017-04-19T13:38:48.023Z,8.65
2017-04-19T13:39:47.737Z,8.66
2017-04-19T13:40:48.064Z,8.53
2017-04-19T13:41:47.788Z,8.61
2017-04-19T13:42:48.185Z,8.95
2017-04-19T13:43:47.822Z,8.96
2017-04-19T13:44:48.144Z,8.87
2017-04-19T13:45:47.863Z,8.8
2017-04-19T13:46:47.884Z,9.24
2017-04-19T13:49:02.847Z,9.36
2017-04-19T13:49:47.945Z,9.23
2017-04-19T13:50:48.270Z,8.62
2017-04-19T13:52:02.907Z,8.36
2017-04-19T13:52:48.313Z,8.19
2017-04-19T13:53:48.333Z,7.79
2017-04-19T13:54:48.354Z,7.75
2017-04-19T13:55:48.374Z,7.24
2017-04-19T13:56:48.398Z,7.03
2017-04-19T13:57:48.419Z,6.92
2017-04-19T13:58:48.435Z,6.85
2017-04-19T13:59:48.457Z,7.02
2017-04-19T14:00:48.479Z,6.95
2017-04-19T14:02:48.519Z,7.03
2017-04-19T14:03:48.542Z,7.16
2017-04-19T14:04:48.560Z,7.25
2017-04-19T14:06:03.196Z,7.28
2017-04-19T14:06:48.600Z,7.24
2017-04-19T14:08:03.238Z,7.28
2017-04-19T14:09:48.663Z,7.28
2017-04-19T14:10:48.684Z,7.23
2017-04-19T14:11:48.703Z,7.2
2017-04-19T14:12:48.720Z,7.21
2017-04-19T14:13:48.991Z,7.28
2017-04-19T14:14:48.458Z,7.32
2017-04-19T14:15:48.783Z,7.28
2017-04-19T14:16:48.805Z,7.34
2017-04-19T14:17:48.822Z,7.37
2017-04-19T14:19:49.082Z,7.53
2017-04-19T14:21:03.498Z,7.72
2017-04-19T14:21:48.607Z,7.69
2017-04-19T14:22:48.923Z,7.83
2017-04-19T14:24:03.558Z,7.58